Time;durP1;ratioP1;P1;durP2;ratioP2;P2;SDS_P1;SDS_P2;PMS_P1;PMS_P2;Temp;Humidity;BMP_temperature;BMP_pressure;BME280_temperature;BME280_humidity;BME280_pressure;Samples;Min_cycle;Max_cycle;Signal;HPM_P1;HPM_P2
2022/03/03 00:00:15;;;;;;;10.10;9.00;;;21.60;61.80;;;;;;6040742;28;89011;-68
2022/03/03 00:03:17;;;;;;;10.70;9.07;;;21.60;61.80;;;;;;6040521;28;88401;-68
2022/03/03 00:06:19;;;;;;;10.98;9.68;;;21.60;62.00;;;;;;6065524;28;89224;-68
2022/03/03 00:09:21;;;;;;;9.57;8.57;;;21.60;62.20;;;;;;6061360;28;88041;-68
2022/03/03 00:12:25;;;;;;;10.02;9.02;;;21.60;62.20;;;;;;6063622;28;89027;-68
2022/03/03 00:15:27;;;;;;;10.50;9.40;;;21.60;62.20;;;;;;6065659;28;88953;-68
2022/03/03 00:18:29;;;;;;;9.95;8.95;;;21.60;62.30;;;;;;6048432;28;88001;-67
2022/03/03 00:21:31;;;;;;;13.18;10.07;;;21.60;62.30;;;;;;6042116;28;89129;-67
2022/03/03 00:24:33;;;;;;;10.07;8.90;;;21.50;62.30;;;;;;6041803;28;87948;-67
2022/03/03 00:27:37;;;;;;;10.63;9.52;;;21.60;62.40;;;;;;6053130;28;89347;-67
2022/03/03 00:30:39;;;;;;;10.27;9.27;;;21.60;62.30;;;;;;6041639;28;89033;-68
2022/03/03 00:33:41;;;;;;;10.93;9.82;;;21.60;62.40;;;;;;6053992;28;88421;-68
2022/03/03 00:36:43;;;;;;;11.00;9.43;;;21.60;62.40;;;;;;6054714;28;89095;-68
2022/03/03 00:39:46;;;;;;;9.98;8.98;;;21.50;62.30;;;;;;6042025;28;89585;-68
2022/03/03 00:42:49;;;;;;;10.18;9.18;;;21.50;62.30;;;;;;6051425;28;89992;-67
2022/03/03 00:45:51;;;;;;;10.40;9.25;;;21.50;62.30;;;;;;6053539;28;89201;-67
2022/03/03 00:48:55;;;;;;;9.93;8.93;;;21.50;62.40;;;;;;6064991;28;89066;-67
2022/03/03 00:51:57;;;;;;;11.48;9.70;;;21.50;62.40;;;;;;6056282;28;89262;-68
2022/03/03 00:55:00;;;;;;;10.00;9.00;;;21.50;62.50;;;;;;6047250;28;89547;-67
2022/03/03 00:58:04;;;;;;;10.52;9.43;;;21.50;62.50;;;;;;6048045;28;89252;-68
2022/03/03 01:01:06;;;;;;;11.30;9.55;;;21.50;62.50;;;;;;6046026;28;89241;-67
2022/03/03 01:04:08;;;;;;;10.13;9.10;;;21.50;62.40;;;;;;6064332;28;88390;-68
2022/03/03 01:07:10;;;;;;;10.25;9.23;;;21.50;62.30;;;;;;6073724;28;87149;-67
2022/03/03 01:10:13;;;;;;;9.70;8.70;;;21.50;62.40;;;;;;6051487;28;88282;-68
2022/03/03 01:13:16;;;;;;;9.85;8.85;;;21.50;62.30;;;;;;6065851;28;90087;-67
2022/03/03 01:16:18;;;;;;;9.40;8.40;;;21.50;62.30;;;;;;6044956;28;89459;-67
2022/03/03 01:19:21;;;;;;;9.25;8.32;;;21.50;62.30;;;;;;6046961;28;89120;-67
2022/03/03 01:22:23;;;;;;;9.77;8.77;;;21.50;62.30;;;;;;6041877;28;88117;-67
2022/03/03 01:25:25;;;;;;;9.30;8.30;;;21.50;62.10;;;;;;6052740;28;89171;-67
2022/03/03 01:28:28;;;;;;;9.43;8.52;;;21.50;62.00;;;;;;6064293;28;88903;-67
2022/03/03 01:31:31;;;;;;;9.68;8.68;;;21.50;62.00;;;;;;6052895;28;88838;-67
2022/03/03 01:34:33;;;;;;;9.32;8.43;;;21.50;62.10;;;;;;6054640;28;88335;-67
2022/03/03 01:37:35;;;;;;;9.35;8.35;;;21.50;62.00;;;;;;6049199;28;89408;-67
2022/03/03 01:40:38;;;;;;;9.25;8.35;;;21.50;62.00;;;;;;6050555;28;89478;-67
2022/03/03 01:43:41;;;;;;;8.73;7.78;;;21.50;62.00;;;;;;6045826;28;90324;-67
2022/03/03 01:46:50;;;;;;;8.73;7.82;;;21.50;62.00;;;;;;6045545;28;89024;-67
2022/03/03 01:49:55;;;;;;;8.32;7.53;;;21.50;61.90;;;;;;6058607;28;89084;-67
2022/03/03 01:52:57;;;;;;;8.85;7.97;;;21.50;62.00;;;;;;6041933;28;89473;-67
2022/03/03 01:55:59;;;;;;;8.32;7.47;;;21.50;62.00;;;;;;6042390;28;89046;-67
2022/03/03 01:59:04;;;;;;;8.60;7.70;;;21.50;62.00;;;;;;6049802;28;89119;-67
2022/03/03 02:02:08;;;;;;;8.27;7.47;;;21.50;62.00;;;;;;6052164;28;89138;-67
2022/03/03 02:05:11;;;;;;;8.00;7.07;;;21.50;62.00;;;;;;6069418;28;88315;-67
2022/03/03 02:08:14;;;;;;;7.75;6.95;;;21.50;62.00;;;;;;6051785;28;89065;-67
2022/03/03 02:11:16;;;;;;;8.68;7.28;;;21.50;62.00;;;;;;6043056;28;88136;-67
2022/03/03 02:14:20;;;;;;;8.40;7.50;;;21.60;62.00;;;;;;6060228;28;90090;-67
2022/03/03 02:17:22;;;;;;;8.10;7.30;;;21.50;61.90;;;;;;6061497;28;89077;-67
2022/03/03 02:20:27;;;;;;;7.60;6.82;;;21.50;61.80;;;;;;6051527;28;87919;-67
2022/03/03 02:23:29;;;;;;;7.28;6.57;;;21.50;61.90;;;;;;6051750;28;89147;-67
2022/03/03 02:26:32;;;;;;;7.63;6.85;;;21.50;61.90;;;;;;6052503;28;89537;-67
2022/03/03 02:29:35;;;;;;;7.50;6.80;;;21.50;61.80;;;;;;6046143;28;88035;-67
2022/03/03 02:32:37;;;;;;;6.97;6.35;;;21.50;61.80;;;;;;6063114;28;89170;-68
2022/03/03 02:35:40;;;;;;;6.78;6.18;;;21.50;61.80;;;;;;6052382;28;88450;-67
2022/03/03 02:38:42;;;;;;;7.18;6.45;;;21.50;61.90;;;;;;6045916;28;89067;-67
2022/03/03 02:41:44;;;;;;;7.35;6.65;;;21.60;61.90;;;;;;6049926;28;89405;-67
2022/03/03 02:44:46;;;;;;;7.28;6.57;;;21.50;61.80;;;;;;6042372;28;90157;-67
2022/03/03 02:47:50;;;;;;;6.90;6.20;;;21.50;61.80;;;;;;6062457;28;89131;-67
2022/03/03 02:50:53;;;;;;;6.90;6.20;;;21.50;61.80;;;;;;6055045;28;89062;-67
2022/03/03 02:53:56;;;;;;;7.00;6.30;;;21.50;61.80;;;;;;6051962;28;87795;-67
2022/03/03 03:00:17;;;;;;;6.40;5.80;;;21.60;61.90;;;;;;6047067;28;87332;-67
2022/03/03 03:03:20;;;;;;;6.65;5.97;;;21.50;61.80;;;;;;6066188;28;87998;-67
2022/03/03 03:06:24;;;;;;;6.47;5.88;;;21.50;61.80;;;;;;6061887;28;88426;-67
2022/03/03 03:09:26;;;;;;;6.60;6.00;;;21.50;61.90;;;;;;6049871;28;89313;-67
2022/03/03 03:12:28;;;;;;;7.00;6.15;;;21.50;61.80;;;;;;6071878;28;88308;-67
2022/03/03 03:15:30;;;;;;;6.45;5.82;;;21.50;61.80;;;;;;6053702;28;90038;-67
2022/03/03 03:18:32;;;;;;;6.65;5.95;;;21.60;61.80;;;;;;6071965;28;89230;-67
2022/03/03 03:21:35;;;;;;;6.60;6.00;;;21.50;61.80;;;;;;6055460;28;89520;-67
2022/03/03 03:24:37;;;;;;;6.35;5.75;;;21.50;61.80;;;;;;6059259;28;89183;-67
2022/03/03 03:27:41;;;;;;;5.90;5.30;;;21.50;61.80;;;;;;6061075;28;88883;-67
2022/03/03 03:30:43;;;;;;;6.28;5.68;;;21.60;61.80;;;;;;6074045;28;89440;-67
2022/03/03 03:33:46;;;;;;;6.30;5.70;;;21.50;61.70;;;;;;6059015;28;88855;-68
2022/03/03 03:36:49;;;;;;;6.45;5.85;;;21.60;61.80;;;;;;6052494;28;88555;-67
2022/03/03 03:39:51;;;;;;;6.35;5.65;;;21.50;61.70;;;;;;6041786;28;89005;-68
2022/03/03 03:42:54;;;;;;;5.95;5.45;;;21.50;61.80;;;;;;6041852;28;89156;-67
2022/03/03 03:45:56;;;;;;;6.28;5.68;;;21.50;61.70;;;;;;6042222;28;90041;-67
2022/03/03 03:48:58;;;;;;;6.00;5.45;;;21.50;61.70;;;;;;6046369;28;89161;-67
2022/03/03 03:52:01;;;;;;;5.68;5.10;;;21.50;61.80;;;;;;6041702;28;89276;-68
2022/03/03 03:55:03;;;;;;;5.75;5.22;;;21.50;61.80;;;;;;6049500;28;88328;-67
2022/03/03 03:58:05;;;;;;;6.05;5.45;;;21.50;61.70;;;;;;6070443;28;87954;-67
2022/03/03 04:01:07;;;;;;;6.00;5.40;;;21.50;61.60;;;;;;6072977;28;89160;-67
2022/03/03 04:04:10;;;;;;;5.72;5.20;;;21.50;61.60;;;;;;6066595;28;89351;-67
2022/03/03 04:07:13;;;;;;;5.85;5.18;;;21.60;61.60;;;;;;6065081;28;88462;-67
2022/03/03 04:10:15;;;;;;;5.32;4.82;;;21.50;61.50;;;;;;6051443;28;88751;-67
2022/03/03 04:13:17;;;;;;;5.80;5.30;;;21.60;61.60;;;;;;6044639;28;89161;-67
2022/03/03 04:16:19;;;;;;;5.50;4.85;;;21.60;61.60;;;;;;6060145;28;89803;-67
2022/03/03 04:19:22;;;;;;;4.88;4.47;;;21.60;61.50;;;;;;6061664;28;88052;-67
2022/03/03 04:22:25;;;;;;;5.80;5.25;;;21.60;62.50;;;;;;6051954;28;88144;-67
2022/03/03 04:25:27;;;;;;;5.90;5.00;;;21.60;61.50;;;;;;6053851;28;89258;-67
2022/03/03 04:28:30;;;;;;;5.13;4.63;;;21.60;61.50;;;;;;6054053;28;89209;-67
2022/03/03 04:31:32;;;;;;;5.68;5.07;;;21.60;61.50;;;;;;6073615;28;89158;-68
2022/03/03 04:34:34;;;;;;;5.18;4.68;;;21.60;61.50;;;;;;6043492;28;89011;-67
2022/03/03 04:37:38;;;;;;;5.25;4.75;;;21.60;61.50;;;;;;6041929;28;88683;-67
2022/03/03 04:40:40;;;;;;;5.75;5.00;;;21.50;61.40;;;;;;6060891;28;89048;-67
2022/03/03 04:43:42;;;;;;;4.95;4.45;;;21.60;61.50;;;;;;6064454;28;88852;-67
2022/03/03 04:46:44;;;;;;;5.38;4.60;;;21.60;61.50;;;;;;6046921;28;90144;-67
2022/03/03 04:49:47;;;;;;;4.90;4.45;;;21.60;61.40;;;;;;6056836;28;87808;-67
2022/03/03 04:52:50;;;;;;;5.15;4.65;;;21.60;61.40;;;;;;6062429;28;89068;-67
2022/03/03 04:55:52;;;;;;;5.35;4.85;;;21.60;61.40;;;;;;6053348;28;88284;-67
2022/03/03 04:58:54;;;;;;;4.75;4.35;;;21.60;61.30;;;;;;6066085;28;89132;-68
2022/03/03 05:01:56;;;;;;;5.10;4.60;;;21.60;61.30;;;;;;6052317;28;89115;-67
2022/03/03 05:04:58;;;;;;;5.57;4.93;;;21.60;61.20;;;;;;6070613;28;89031;-67
2022/03/03 05:08:02;;;;;;;4.80;4.40;;;21.70;61.20;;;;;;6058834;28;87379;-67
2022/03/03 05:11:04;;;;;;;4.72;4.28;;;21.60;61.20;;;;;;6046332;28;88898;-68
2022/03/03 05:14:06;;;;;;;5.00;4.57;;;21.60;61.20;;;;;;6072113;28;88998;-67
2022/03/03 05:17:09;;;;;;;4.82;4.40;;;21.60;61.10;;;;;;6062660;28;90055;-67
2022/03/03 05:20:12;;;;;;;4.50;3.90;;;21.60;61.20;;;;;;6058454;28;87992;-67
2022/03/03 05:23:15;;;;;;;5.15;4.57;;;21.60;61.20;;;;;;6053749;28;89395;-67
2022/03/03 05:26:18;;;;;;;4.75;4.25;;;21.60;61.20;;;;;;6056149;28;88410;-67
2022/03/03 05:29:20;;;;;;;4.72;4.28;;;21.60;61.30;;;;;;6049601;28;90550;-66
2022/03/03 05:32:22;;;;;;;4.72;4.22;;;21.60;61.20;;;;;;6066034;28;89162;-67
2022/03/03 05:35:24;;;;;;;4.75;4.25;;;21.60;61.20;;;;;;6040532;28;89479;-67
2022/03/03 05:38:31;;;;;;;4.43;4.03;;;21.60;61.10;;;;;;6040341;28;88425;-67
2022/03/03 05:41:34;;;;;;;4.90;4.38;;;21.60;61.10;;;;;;6051481;28;89620;-67
2022/03/03 05:44:37;;;;;;;4.47;4.07;;;21.60;61.10;;;;;;6040592;28;89388;-67
2022/03/03 05:47:39;;;;;;;4.60;4.20;;;21.60;61.30;;;;;;6061743;28;90029;-67
2022/03/03 05:50:41;;;;;;;5.55;4.50;;;21.60;61.50;;;;;;6040224;28;89150;-67
2022/03/03 05:53:45;;;;;;;5.53;4.72;;;21.70;61.30;;;;;;6041566;28;89263;-67
2022/03/03 05:56:49;;;;;;;5.13;4.63;;;21.70;61.20;;;;;;6058813;28;88888;-67
2022/03/03 05:59:52;;;;;;;4.95;4.50;;;21.70;61.10;;;;;;6045630;28;89433;-67
2022/03/03 06:02:55;;;;;;;5.50;5.00;;;21.60;61.20;;;;;;6059165;28;89195;-67
2022/03/03 06:06:04;;;;;;;5.15;4.65;;;21.60;61.20;;;;;;6068447;28;89185;-67
2022/03/03 06:09:14;;;;;;;4.93;4.47;;;21.70;61.30;;;;;;6055039;28;88415;-67
2022/03/03 06:12:23;;;;;;;7.53;5.07;;;21.70;61.30;;;;;;6050379;28;89444;-67
2022/03/03 06:15:25;;;;;;;6.97;4.80;;;21.60;61.30;;;;;;6064357;28;88036;-67
2022/03/03 06:18:30;;;;;;;5.82;5.20;;;21.70;61.40;;;;;;6061869;28;90077;-67
2022/03/03 06:21:32;;;;;;;6.10;5.50;;;21.70;61.40;;;;;;6058139;28;89448;-67
2022/03/03 06:24:36;;;;;;;5.50;4.93;;;21.70;61.30;;;;;;6061863;28;87948;-67
2022/03/03 06:27:38;;;;;;;6.13;5.53;;;21.70;61.40;;;;;;6051229;28;87811;-66
2022/03/03 06:30:40;;;;;;;6.00;5.40;;;21.70;61.40;;;;;;6050822;28;88025;-67
2022/03/03 06:33:43;;;;;;;6.65;5.47;;;21.70;61.30;;;;;;6059571;28;89187;-67
2022/03/03 06:36:45;;;;;;;6.13;5.53;;;21.70;61.30;;;;;;6052679;28;89309;-67
2022/03/03 06:39:48;;;;;;;6.00;5.40;;;21.70;61.30;;;;;;6053980;28;87755;-67
2022/03/03 06:42:51;;;;;;;6.25;5.65;;;21.70;62.20;;;;;;6050887;28;89579;-67
2022/03/03 06:45:53;;;;;;;6.72;5.75;;;21.70;61.20;;;;;;6064120;28;89304;-67
2022/03/03 06:48:55;;;;;;;6.22;5.60;;;21.80;61.20;;;;;;6063099;28;89714;-67
2022/03/03 06:51:58;;;;;;;6.05;5.22;;;21.80;61.10;;;;;;6053814;28;87940;-67
2022/03/03 06:55:03;;;;;;;6.18;5.57;;;21.80;61.10;;;;;;6051347;28;89324;-67
2022/03/03 06:58:05;;;;;;;6.50;5.90;;;21.80;61.10;;;;;;6039009;28;89176;-67
2022/03/03 07:01:08;;;;;;;6.72;5.88;;;21.80;61.10;;;;;;6041798;28;88355;-67
2022/03/03 07:04:13;;;;;;;6.38;5.72;;;21.70;61.10;;;;;;6050717;28;89222;-67
2022/03/03 07:07:16;;;;;;;6.40;5.80;;;21.80;61.10;;;;;;6056310;28;89107;-67
2022/03/03 07:10:23;;;;;;;7.25;6.13;;;21.80;61.10;;;;;;6052182;28;88296;-67
2022/03/03 07:13:25;;;;;;;6.88;6.00;;;21.80;61.10;;;;;;6052628;28;88939;-66
2022/03/03 07:16:37;;;;;;;6.60;6.00;;;21.80;61.10;;;;;;6043233;28;88092;-66
2022/03/03 07:19:50;;;;;;;6.45;5.85;;;21.80;61.10;;;;;;6062862;28;90053;-66
2022/03/03 07:23:03;;;;;;;6.05;5.45;;;21.80;61.10;;;;;;6059596;28;89159;-68
2022/03/03 07:26:10;;;;;;;6.53;5.75;;;21.80;61.10;;;;;;6058078;28;89030;-67
2022/03/03 07:29:16;;;;;;;6.30;5.70;;;21.80;61.10;;;;;;6057419;28;89063;-67
2022/03/03 07:32:20;;;;;;;6.82;5.82;;;21.90;61.20;;;;;;6043859;28;88791;-67
2022/03/03 07:35:25;;;;;;;6.63;5.95;;;21.90;61.20;;;;;;6048027;28;89139;-67
2022/03/03 07:38:32;;;;;;;6.30;5.70;;;21.90;61.20;;;;;;6061111;28;89553;-67
2022/03/03 07:41:35;;;;;;;6.80;5.68;;;21.90;61.30;;;;;;6049638;28;88517;-67
2022/03/03 07:44:37;;;;;;;6.38;5.78;;;21.80;61.20;;;;;;6070778;28;89278;-67
2022/03/03 07:47:40;;;;;;;6.45;5.85;;;21.90;61.30;;;;;;6059087;28;87948;-67
2022/03/03 07:50:43;;;;;;;6.53;5.93;;;21.90;61.30;;;;;;6050498;28;90355;-67
2022/03/03 07:53:45;;;;;;;6.53;5.88;;;21.90;61.30;;;;;;6057449;28;89032;-66
2022/03/03 07:56:52;;;;;;;6.20;5.57;;;21.90;61.30;;;;;;6043647;28;89096;-67
2022/03/03 08:00:01;;;;;;;6.47;5.65;;;21.90;61.40;;;;;;6052118;28;89181;-67
2022/03/03 08:03:08;;;;;;;6.43;5.78;;;21.90;61.40;;;;;;6054536;28;89174;-67
2022/03/03 08:06:13;;;;;;;6.32;5.72;;;21.90;61.40;;;;;;6044596;28;89553;-67
2022/03/03 08:09:16;;;;;;;6.28;5.68;;;21.90;61.40;;;;;;6052550;28;89092;-67
2022/03/03 08:12:23;;;;;;;5.95;5.35;;;21.90;61.40;;;;;;6062477;28;88008;-67
2022/03/03 08:15:26;;;;;;;6.60;5.90;;;21.90;61.50;;;;;;6047738;28;90271;-66
2022/03/03 08:18:31;;;;;;;6.18;5.55;;;21.90;61.40;;;;;;6061913;28;89405;-67
2022/03/03 08:21:34;;;;;;;6.53;5.93;;;22.00;61.50;;;;;;6056225;28;88956;-67
2022/03/03 08:24:36;;;;;;;5.70;5.20;;;21.90;61.50;;;;;;6064213;28;89472;-67
2022/03/03 08:27:41;;;;;;;6.18;5.57;;;22.00;61.60;;;;;;6064971;28;87026;-67
2022/03/03 08:30:46;;;;;;;6.47;5.78;;;21.90;61.50;;;;;;6053544;28;89366;-67
2022/03/03 08:33:53;;;;;;;5.85;5.25;;;22.00;61.50;;;;;;6060079;28;89289;-67
2022/03/03 08:37:17;;;;;;;5.95;5.40;;;22.00;61.60;;;;;;6055504;28;89015;-67
2022/03/03 08:40:19;;;;;;;6.20;5.60;;;22.00;61.60;;;;;;6058801;28;89085;-67
2022/03/03 08:43:24;;;;;;;6.22;5.45;;;22.00;61.60;;;;;;6048381;28;88676;-67
2022/03/03 08:46:27;;;;;;;6.07;5.47;;;22.00;61.60;;;;;;6055921;28;89095;-67
2022/03/03 08:49:36;;;;;;;5.50;5.00;;;22.00;61.60;;;;;;6063367;28;89065;-67
2022/03/03 08:52:40;;;;;;;5.53;5.03;;;22.00;61.60;;;;;;6068663;28;90063;-67
2022/03/03 08:55:42;;;;;;;6.43;5.82;;;22.00;61.60;;;;;;6041716;28;88320;-67
2022/03/03 08:58:46;;;;;;;5.50;4.97;;;22.00;61.60;;;;;;6065177;28;89216;-67
2022/03/03 09:01:49;;;;;;;5.90;5.30;;;22.00;61.60;;;;;;6053570;28;89091;-67
2022/03/03 09:04:52;;;;;;;5.80;5.22;;;22.00;61.60;;;;;;6053809;28;89159;-67
2022/03/03 09:07:54;;;;;;;5.90;5.30;;;22.10;61.60;;;;;;6048127;28;89361;-67
2022/03/03 09:10:56;;;;;;;5.88;5.10;;;22.10;61.70;;;;;;6063079;28;89186;-67
2022/03/03 09:13:59;;;;;;;5.50;5.00;;;22.00;61.60;;;;;;6052144;28;88378;-67
2022/03/03 09:17:02;;;;;;;5.55;4.95;;;22.00;61.60;;;;;;6059303;28;89003;-67
2022/03/03 09:20:07;;;;;;;5.85;5.25;;;22.10;61.80;;;;;;6056589;28;89272;-67
2022/03/03 09:23:09;;;;;;;5.18;4.68;;;22.00;61.60;;;;;;6044106;28;89996;-67
2022/03/03 09:26:11;;;;;;;5.75;5.20;;;22.00;61.70;;;;;;6060047;28;88436;-67
2022/03/03 09:29:16;;;;;;;6.00;5.28;;;22.10;61.80;;;;;;6059997;28;88357;-67
2022/03/03 09:32:18;;;;;;;5.35;4.85;;;22.10;61.80;;;;;;6045318;28;89469;-67
2022/03/03 09:35:20;;;;;;;5.60;5.07;;;22.10;61.80;;;;;;6060554;28;89126;-67
2022/03/03 09:38:22;;;;;;;5.32;4.82;;;22.10;61.80;;;;;;6041396;28;89011;-67
2022/03/03 09:41:24;;;;;;;5.55;5.05;;;22.10;61.90;;;;;;6039958;28;89263;-67
2022/03/03 09:44:28;;;;;;;5.47;4.80;;;22.10;61.90;;;;;;6052251;28;88432;-67
2022/03/03 09:47:30;;;;;;;5.60;5.10;;;22.10;61.90;;;;;;6052780;28;89069;-67
2022/03/03 09:50:35;;;;;;;5.30;4.80;;;22.10;61.80;;;;;;6050445;28;89694;-67
2022/03/03 09:53:40;;;;;;;5.43;4.93;;;22.10;61.90;;;;;;6056990;28;89055;-67
2022/03/03 09:56:43;;;;;;;5.00;4.53;;;22.10;61.90;;;;;;6048394;28;89135;-67
2022/03/03 09:59:46;;;;;;;5.65;5.10;;;22.10;61.80;;;;;;6048821;28;88293;-67
2022/03/03 10:02:59;;;;;;;5.18;4.68;;;22.20;61.90;;;;;;6063442;28;89424;-67
2022/03/03 10:06:02;;;;;;;5.03;4.53;;;22.20;61.90;;;;;;6050227;28;88947;-67
2022/03/03 10:09:05;;;;;;;5.65;5.15;;;22.10;61.90;;;;;;6064526;28;88002;-67
2022/03/03 10:12:08;;;;;;;5.32;4.82;;;22.20;62.00;;;;;;6059888;28;89151;-67
2022/03/03 10:15:15;;;;;;;5.63;5.13;;;22.10;61.90;;;;;;6052899;28;88670;-67
2022/03/03 10:18:19;;;;;;;5.20;4.70;;;22.20;62.00;;;;;;6050396;28;89421;-67
2022/03/03 10:21:21;;;;;;;5.22;4.72;;;22.20;62.00;;;;;;6064032;28;89399;-68
2022/03/03 10:24:26;;;;;;;4.78;4.32;;;22.20;62.00;;;;;;6050357;28;88973;-67
2022/03/03 10:27:29;;;;;;;5.32;4.82;;;22.20;62.00;;;;;;6050974;28;89174;-67
2022/03/03 10:30:48;;;;;;;5.18;4.68;;;22.20;62.00;;;;;;6051668;28;89169;-67
2022/03/03 10:33:50;;;;;;;5.38;4.88;;;22.20;62.00;;;;;;6051623;28;89467;-67
2022/03/03 10:37:03;;;;;;;4.82;4.32;;;22.20;62.00;;;;;;6046504;28;89034;-67
2022/03/03 10:40:12;;;;;;;4.88;4.47;;;22.20;62.00;;;;;;6055279;28;89253;-67
2022/03/03 10:43:14;;;;;;;4.95;4.45;;;22.20;62.00;;;;;;6061268;28;89572;-67
2022/03/03 10:46:17;;;;;;;5.07;4.53;;;22.20;62.10;;;;;;6063813;28;88479;-67
2022/03/03 10:49:21;;;;;;;5.30;4.80;;;22.20;62.00;;;;;;6062501;28;88744;-67
2022/03/03 10:52:25;;;;;;;4.68;4.28;;;22.30;62.10;;;;;;6068205;28;87913;-67
2022/03/03 10:55:27;;;;;;;4.88;4.38;;;22.20;62.00;;;;;;6051461;28;90118;-67
2022/03/03 10:58:49;;;;;;;4.88;4.38;;;22.20;62.00;;;;;;6039054;28;89122;-67
2022/03/03 11:01:53;;;;;;;4.45;4.05;;;22.20;62.10;;;;;;6037959;28;89288;-67
2022/03/03 11:04:56;;;;;;;4.97;4.50;;;22.20;62.10;;;;;;6039676;28;87965;-67
2022/03/03 11:07:58;;;;;;;4.60;4.20;;;22.20;62.10;;;;;;6039107;28;89475;-67
2022/03/03 11:11:01;;;;;;;5.10;4.40;;;22.30;62.20;;;;;;6044040;28;89114;-67
2022/03/03 11:14:03;;;;;;;4.47;4.07;;;22.30;62.20;;;;;;6058021;28;89148;-67
2022/03/03 11:17:09;;;;;;;5.13;4.63;;;22.20;62.10;;;;;;6053989;28;88358;-67
2022/03/03 11:20:14;;;;;;;4.50;4.10;;;22.20;62.20;;;;;;6051076;28;87914;-67
2022/03/03 11:23:17;;;;;;;4.30;3.90;;;22.30;62.20;;;;;;6055098;28;89242;-66
2022/03/03 11:26:23;;;;;;;4.68;4.28;;;22.20;62.20;;;;;;6057348;28;90347;-67
2022/03/03 11:29:26;;;;;;;5.07;4.18;;;22.20;62.20;;;;;;6041314;28;87226;-67
2022/03/03 11:32:29;;;;;;;4.57;4.18;;;22.20;62.50;;;;;;6055512;28;89154;-67
2022/03/03 11:35:48;;;;;;;4.65;4.25;;;22.20;62.30;;;;;;6063040;28;89358;-66
2022/03/03 11:38:53;;;;;;;4.30;3.90;;;22.30;62.40;;;;;;6044094;28;89391;-67
2022/03/03 11:41:56;;;;;;;4.32;3.92;;;22.30;62.40;;;;;;6050842;28;88992;-67
2022/03/03 11:45:00;;;;;;;5.28;4.15;;;22.30;62.40;;;;;;6052208;28;88327;-67
2022/03/03 11:48:15;;;;;;;4.30;3.90;;;22.30;62.40;;;;;;6038737;28;88416;-67
2022/03/03 11:51:34;;;;;;;4.53;4.13;;;22.30;62.40;;;;;;6065582;28;89515;-67
2022/03/03 11:54:38;;;;;;;4.55;4.03;;;22.30;62.40;;;;;;6045584;28;89035;-67
2022/03/03 11:57:40;;;;;;;4.47;4.07;;;22.40;62.50;;;;;;6050656;28;90351;-67
2022/03/03 12:00:47;;;;;;;4.50;4.10;;;22.30;62.40;;;;;;6045205;28;87733;-67
2022/03/03 12:04:02;;;;;;;4.10;3.78;;;22.30;62.40;;;;;;6054955;28;89320;-67
2022/03/03 12:07:04;;;;;;;4.40;4.00;;;22.30;62.50;;;;;;6052899;28;89106;-67
2022/03/03 12:10:13;;;;;;;4.10;3.80;;;22.30;62.50;;;;;;6042529;28;89151;-67
2022/03/03 12:13:25;;;;;;;4.18;3.78;;;22.30;62.50;;;;;;6054508;28;89375;-67
2022/03/03 12:16:30;;;;;;;4.30;3.90;;;22.30;62.50;;;;;;6045395;28;89089;-67
2022/03/03 12:19:37;;;;;;;4.65;4.25;;;22.30;62.60;;;;;;6048131;28;87320;-67
2022/03/03 12:22:59;;;;;;;4.30;3.90;;;22.30;62.60;;;;;;6049077;28;87750;-67
2022/03/03 12:26:04;;;;;;;3.88;3.58;;;22.30;62.70;;;;;;6060619;28;89105;-67
2022/03/03 12:29:28;;;;;;;4.28;3.88;;;22.30;62.70;;;;;;6059410;28;90058;-67
2022/03/03 12:32:40;;;;;;;4.40;4.00;;;22.30;62.70;;;;;;6054445;28;89409;-67
2022/03/03 12:35:44;;;;;;;4.25;3.83;;;22.30;62.70;;;;;;6053803;28;89162;-67
2022/03/03 12:38:46;;;;;;;3.90;3.60;;;22.30;62.70;;;;;;6042441;28;89655;-67
2022/03/03 12:41:52;;;;;;;4.00;3.70;;;22.30;62.80;;;;;;6044814;28;89065;-67
2022/03/03 12:44:55;;;;;;;4.35;3.95;;;22.30;62.80;;;;;;6052173;28;89197;-67
2022/03/03 12:47:57;;;;;;;3.85;3.55;;;22.30;62.80;;;;;;6052777;28;88657;-67
2022/03/03 12:51:04;;;;;;;4.15;3.33;;;22.30;62.80;;;;;;6073867;28;88394;-67
2022/03/03 12:54:07;;;;;;;4.07;3.67;;;22.30;62.80;;;;;;6064096;28;89042;-67
2022/03/03 12:57:10;;;;;;;4.07;3.67;;;22.30;62.80;;;;;;6041751;28;89100;-67
2022/03/03 13:00:14;;;;;;;4.13;3.72;;;22.30;62.80;;;;;;6042871;28;90144;-67
2022/03/03 13:03:18;;;;;;;3.97;3.58;;;22.30;63.00;;;;;;6048973;28;89087;-67
2022/03/03 13:06:23;;;;;;;3.70;3.40;;;22.20;62.80;;;;;;6057020;28;88943;-67
2022/03/03 13:09:25;;;;;;;4.10;3.70;;;22.30;62.80;;;;;;6054058;28;88974;-67
2022/03/03 13:12:42;;;;;;;4.30;3.90;;;22.30;62.80;;;;;;6046987;28;89127;-67
2022/03/03 13:15:45;;;;;;;3.88;3.58;;;22.30;62.80;;;;;;6059901;28;89356;-67
2022/03/03 13:18:47;;;;;;;3.92;3.53;;;22.30;62.80;;;;;;6047915;28;89203;-67
2022/03/03 13:21:50;;;;;;;4.03;3.63;;;22.30;62.80;;;;;;6048279;28;88359;-69
2022/03/03 13:25:14;;;;;;;4.10;3.70;;;22.30;62.80;;;;;;6051474;28;89461;-67
2022/03/03 13:28:25;;;;;;;4.05;3.65;;;22.30;62.80;;;;;;6052076;28;89124;-67
2022/03/03 13:31:27;;;;;;;3.72;3.38;;;22.30;62.80;;;;;;6039019;28;90118;-68
2022/03/03 13:34:31;;;;;;;3.85;3.55;;;22.30;62.80;;;;;;6050863;28;88317;-67
2022/03/03 13:37:34;;;;;;;4.00;3.60;;;22.20;63.10;;;;;;6052329;28;89070;-67
2022/03/03 13:40:38;;;;;;;3.80;3.50;;;22.20;62.80;;;;;;6043941;28;89174;-67
2022/03/03 13:43:40;;;;;;;3.60;3.30;;;22.20;62.70;;;;;;6052917;28;89603;-67
2022/03/03 13:46:44;;;;;;;3.60;3.30;;;22.20;62.80;;;;;;6056534;28;87995;-67
2022/03/03 13:49:51;;;;;;;4.10;3.70;;;22.20;62.80;;;;;;6049046;28;89452;-67
2022/03/03 13:52:54;;;;;;;4.00;3.70;;;22.20;62.80;;;;;;6041130;28;88521;-67
2022/03/03 13:56:06;;;;;;;3.65;3.35;;;22.30;62.80;;;;;;6041336;28;89233;-68
2022/03/03 13:59:09;;;;;;;3.60;3.30;;;22.30;62.80;;;;;;6063016;28;89198;-68
2022/03/03 14:02:11;;;;;;;3.70;3.40;;;22.20;62.70;;;;;;6049792;28;89980;-67
2022/03/03 14:05:13;;;;;;;3.60;3.30;;;22.20;62.70;;;;;;6052142;28;89182;-68
2022/03/03 14:08:28;;;;;;;3.88;3.53;;;22.20;62.70;;;;;;6052173;28;88141;-68
2022/03/03 14:11:30;;;;;;;3.50;3.20;;;22.30;62.70;;;;;;6039517;28;89449;-68
2022/03/03 14:14:32;;;;;;;3.53;3.22;;;22.20;62.60;;;;;;6061199;28;89207;-68
2022/03/03 14:17:34;;;;;;;3.92;3.53;;;22.20;62.60;;;;;;6059409;28;88007;-68
2022/03/03 14:20:37;;;;;;;3.55;3.22;;;22.20;62.60;;;;;;6056709;28;89431;-68
2022/03/03 14:23:40;;;;;;;3.35;3.05;;;22.20;63.50;;;;;;6061404;28;87265;-68
2022/03/03 14:26:42;;;;;;;3.63;3.20;;;22.20;62.60;;;;;;6062153;28;89162;-68
2022/03/03 14:29:45;;;;;;;3.38;3.08;;;22.20;62.60;;;;;;6053363;28;89279;-68
2022/03/03 14:32:47;;;;;;;3.33;3.03;;;22.20;62.60;;;;;;6060332;28;88814;-68
2022/03/03 14:35:51;;;;;;;3.40;3.10;;;22.20;62.70;;;;;;6055890;28;89402;-68
2022/03/03 14:38:57;;;;;;;3.20;2.90;;;22.20;62.60;;;;;;6040374;28;87982;-68
2022/03/03 14:42:00;;;;;;;3.40;3.10;;;22.20;62.50;;;;;;6057400;28;89151;-67
2022/03/03 14:45:02;;;;;;;3.40;3.10;;;22.20;62.50;;;;;;6049701;28;89272;-68
2022/03/03 14:48:06;;;;;;;3.35;3.05;;;22.20;62.50;;;;;;6048674;28;89103;-68
2022/03/03 14:51:10;;;;;;;3.55;3.25;;;22.20;62.50;;;;;;6056410;28;89222;-68
2022/03/03 14:54:14;;;;;;;3.20;2.90;;;22.20;62.50;;;;;;6052232;28;88394;-68
2022/03/03 14:57:17;;;;;;;3.28;2.97;;;22.20;62.60;;;;;;6049110;28;89055;-68
2022/03/03 15:00:20;;;;;;;3.50;3.20;;;22.20;62.50;;;;;;6050451;28;89491;-68
2022/03/03 15:03:22;;;;;;;2.95;2.72;;;22.20;62.50;;;;;;6049391;28;90061;-68
2022/03/03 15:06:24;;;;;;;2.85;2.65;;;22.20;62.50;;;;;;6055129;28;89434;-68
2022/03/03 15:09:27;;;;;;;3.10;2.80;;;22.20;62.50;;;;;;6055490;28;89316;-67
2022/03/03 15:12:29;;;;;;;3.08;2.80;;;22.20;62.50;;;;;;6050175;28;89136;-68
2022/03/03 15:15:32;;;;;;;3.30;3.00;;;22.20;62.50;;;;;;6061999;28;89421;-67
2022/03/03 15:18:34;;;;;;;3.10;2.80;;;22.20;62.50;;;;;;6059675;28;89199;-68
2022/03/03 15:21:37;;;;;;;2.92;2.70;;;22.20;62.50;;;;;;6058955;28;89566;-68
2022/03/03 15:24:41;;;;;;;3.17;2.88;;;22.20;62.50;;;;;;6058775;28;88300;-67
2022/03/03 15:27:43;;;;;;;2.90;2.70;;;22.20;62.50;;;;;;6056218;28;89436;-68
2022/03/03 15:30:45;;;;;;;3.30;3.00;;;22.20;62.60;;;;;;6038971;28;89524;-68
2022/03/03 15:37:06;;;;;;;3.03;2.72;;;22.20;62.60;;;;;;6057933;28;87381;-68
2022/03/03 15:40:10;;;;;;;2.83;2.63;;;22.20;62.70;;;;;;6050994;28;89181;-68
2022/03/03 15:43:13;;;;;;;3.22;2.92;;;22.20;62.70;;;;;;6053364;28;89072;-68
2022/03/03 15:46:15;;;;;;;3.40;2.67;;;22.20;62.60;;;;;;6048295;28;88154;-68
2022/03/03 15:49:18;;;;;;;2.85;2.65;;;22.20;62.70;;;;;;6038849;28;89453;-68
2022/03/03 15:52:20;;;;;;;3.05;2.75;;;22.10;62.60;;;;;;6069154;28;89000;-67
2022/03/03 15:55:24;;;;;;;2.90;2.70;;;22.10;62.70;;;;;;6048931;28;88601;-68
2022/03/03 15:58:26;;;;;;;2.70;2.50;;;22.10;62.70;;;;;;6054138;28;89662;-68
2022/03/03 16:01:28;;;;;;;2.97;2.72;;;22.10;62.70;;;;;;6043144;28;87182;-68